地図

経路データ

SID SEASON NUMBER BASIN SUBBASIN NAME ISO_TIME NATURE LAT LON WMO_WIND WMO_PRES WMO_AGENCY TRACK_TYPE DIST2LAND LANDFALL IFLAG USA_AGENCY USA_ATCF_ID USA_LAT USA_LON USA_RECORD USA_STATUS USA_WIND USA_PRES USA_SSHS USA_R34_NE USA_R34_SE USA_R34_SW USA_R34_NW USA_R50_NE USA_R50_SE USA_R50_SW USA_R50_NW USA_R64_NE USA_R64_SE USA_R64_SW USA_R64_NW USA_POCI USA_ROCI USA_RMW USA_EYE TOKYO_LAT TOKYO_LON TOKYO_GRADE TOKYO_WIND TOKYO_PRES TOKYO_R50_DIR TOKYO_R50_LONG TOKYO_R50_SHORT TOKYO_R30_DIR TOKYO_R30_LONG TOKYO_R30_SHORT TOKYO_LAND CMA_LAT CMA_LON CMA_CAT CMA_WIND CMA_PRES HKO_LAT HKO_LON HKO_CAT HKO_WIND HKO_PRES NEWDELHI_LAT NEWDELHI_LON NEWDELHI_GRADE NEWDELHI_WIND NEWDELHI_PRES NEWDELHI_CI NEWDELHI_DP NEWDELHI_POCI REUNION_LAT REUNION_LON REUNION_TYPE REUNION_WIND REUNION_PRES REUNION_TNUM REUNION_CI REUNION_RMW REUNION_R34_NE REUNION_R34_SE REUNION_R34_SW REUNION_R34_NW REUNION_R50_NE REUNION_R50_SE REUNION_R50_SW REUNION_R50_NW REUNION_R64_NE REUNION_R64_SE REUNION_R64_SW REUNION_R64_NW BOM_LAT BOM_LON BOM_TYPE BOM_WIND BOM_PRES BOM_TNUM BOM_CI BOM_RMW BOM_R34_NE BOM_R34_SE BOM_R34_SW BOM_R34_NW BOM_R50_NE BOM_R50_SE BOM_R50_SW BOM_R50_NW BOM_R64_NE BOM_R64_SE BOM_R64_SW BOM_R64_NW BOM_ROCI BOM_POCI BOM_EYE BOM_POS_METHOD BOM_PRES_METHOD NADI_LAT NADI_LON NADI_CAT NADI_WIND NADI_PRES WELLINGTON_LAT WELLINGTON_LON WELLINGTON_WIND WELLINGTON_PRES DS824_LAT DS824_LON DS824_STAGE DS824_WIND DS824_PRES TD9636_LAT TD9636_LON TD9636_STAGE TD9636_WIND TD9636_PRES TD9635_LAT TD9635_LON TD9635_WIND TD9635_PRES TD9635_ROCI NEUMANN_LAT NEUMANN_LON NEUMANN_CLASS NEUMANN_WIND NEUMANN_PRES MLC_LAT MLC_LON MLC_CLASS MLC_WIND MLC_PRES USA_GUST BOM_GUST BOM_GUST_PER REUNION_GUST REUNION_GUST_PER USA_SEAHGT USA_SEARAD_NE USA_SEARAD_SE USA_SEARAD_SW USA_SEARAD_NW STORM_SPEED STORM_DIR
2006253N20120 2006 63 WP MM NOT_NAMED 2006-09-10 00:00:00 TS 20.4000 120.000 main 182 182 __O___________ -1 20.4000 120.000 0 19 1004 6 260
2006253N20120 2006 63 WP MM NOT_NAMED 2006-09-10 03:00:00 TS 20.3526 119.710 main 197 197 __P___________ -1 20.3526 119.710 0 21 1003 6 260
2006253N20120 2006 63 WP MM NOT_NAMED 2006-09-10 06:00:00 TS 20.3000 119.400 main 224 224 __O___________ -1 20.3000 119.400 1 23 1002 6 260
2006253N20120 2006 63 WP MM NOT_NAMED 2006-09-10 09:00:00 TS 20.2425 119.057 main 252 252 __P___________ -1 20.2425 119.057 1 26 1002 7 261
2006253N20120 2006 63 WP MM NOT_NAMED 2006-09-10 12:00:00 TS 20.2000 118.700 main 281 281 __O___________ -1 20.2000 118.700 1 29 1002 7 266
2006253N20120 2006 63 WP MM NOT_NAMED 2006-09-10 15:00:00 TS 20.1999 118.350 main 305 305 __P___________ -1 20.1999 118.350 1 29 1002 7 270
2006253N20120 2006 63 WP MM NOT_NAMED 2006-09-10 18:00:00 TS 20.2000 118.000 main 338 326 __O___________ -1 20.2000 118.000 1 29 1002 6 268
2006253N20120 2006 63 WP MM NOT_NAMED 2006-09-10 21:00:00 TS 20.1723 117.665 main 326 319 __P___________ -1 20.1723 117.665 1 29 1002 7 261
2006253N20120 2006 63 WP MM NOT_NAMED 2006-09-11 00:00:00 TS 20.1000 117.300 main 323 321 __O___________ -1 20.1000 117.300 1 29 1002 8 254
2006253N20120 2006 63 WP MM NOT_NAMED 2006-09-11 03:00:00 TS 19.9501 116.850 main 319 319 __P___________ -1 19.9501 116.850 1 29 1002 9 250
2006253N20120 2006 63 WP MM NOT_NAMED 2006-09-11 06:00:00 TS 19.8000 116.400 main 330 325 __O___________ -1 19.8000 116.400 1 29 1002 8 255
2006253N20120 2006 63 WP MM NOT_NAMED 2006-09-11 09:00:00 TS 19.7423 116.035 main 333 323 __P___________ -1 19.7423 116.035 1 29 1002 7 261
2006253N20120 2006 63 WP MM NOT_NAMED 2006-09-11 12:00:00 TS 19.7000 115.700 main 323 308 __O___________ -1 19.7000 115.700 1 29 1002 7 267
2006253N20120 2006 63 WP MM NOT_NAMED 2006-09-11 15:00:00 TS 19.6976 115.252 main 308 302 __P___________ -1 19.6976 115.252 1 29 1002 7 253
2006253N20120 2006 63 WP MM NOT_NAMED 2006-09-11 18:00:00 TS 19.5000 115.000 main 321 321 __O___________ -1 19.5000 115.000 1 29 1002 11 179
2006253N20120 2006 63 WP MM NOT_NAMED 2006-09-11 21:00:00 TS 18.6427 115.264 main 426 426 __P___________ -1 18.6427 115.264 1 29 1001 15 160
2006253N20120 2006 63 WP MM NOT_NAMED 2006-09-12 00:00:00 TS 18.0800 115.540 main 486 414 O_O___________ jtwc_wp WP152006 18.0000 115.300 DB 20 1004 -3 18.1000 115.600 1 29 1000 4 56
2006253N20120 2006 63 WP MM NOT_NAMED 2006-09-12 03:00:00 TS 18.8446 115.578 main 414 333 P_P___________ WP152006 18.7350 115.422 DB 25 1002 -3 18.8994 115.657 1 29 1000 15 355
2006253N20120 2006 63 WP MM NOT_NAMED 2006-09-12 06:00:00 TS 19.5500 115.388 main 322 267 O_OO__________ jtwc_wp WP152006 19.4000 115.400 TD 30 1000 -1 1008 190 45 20.0000 115.400 1 29 1000 18.2000 115.300 TD 25 1000 13 334
2006253N20120 2006 63 WP MM NOT_NAMED 2006-09-12 09:00:00 TS 20.0248 114.975 main 267 213 P_PP__________ WP152006 19.9325 115.133 TD 30 1000 -1 1008 190 45 20.4209 114.718 1 29 1000 19.4173 115.175 TD 25 1000 12 315
2006253N20120 2006 63 WP MM NOT_NAMED 2006-09-12 12:00:00 TS 20.4091 114.464 main 213 178 O_OO__________ jtwc_wp WP152006 20.3000 114.700 DB 30 1000 -3 1008 190 45 20.6000 113.900 1 29 1000 20.3000 114.900 TD 25 1000 11 303
2006253N20120 2006 63 WP MM NOT_NAMED 2006-09-12 15:00:00 TS 20.6366 113.974 main 178 143 P_PP__________ WP152006 20.4950 114.222 DB 30 1000 -3 1008 185 47 20.7796 113.312 1 29 1000 20.6353 114.387 TD 27 999 10 289
2006253N20120 2006 63 WP MM NOT_NAMED 2006-09-12 18:00:00 TS 20.7333 113.433 main 140 105 O_OO__________ jtwc_wp WP152006 20.6000 113.700 TD 30 1000 -1 1008 180 50 20.9000 112.800 1 29 1000 20.7000 113.800 TD 30 998 10 283
2006253N20120 2006 63 WP MM NOT_NAMED 2006-09-12 21:00:00 TS 20.8691 112.915 main 105 80 P_PP__________ WP152006 20.7424 113.192 TD 30 1000 -1 1008 180 50 21.0077 112.225 1 26 1001 20.8573 113.327 TD 30 998 10 286
2006253N20120 2006 63 WP MM NOT_NAMED 2006-09-13 00:00:00 TS 21.0000 112.427 main 78 63 O_OO__________ jtwc_wp WP152006 20.9000 112.700 TD 30 1000 -1 1008 180 50 21.1000 111.800 1 23 1002 21.0000 112.900 TD 30 998 8 289
2006253N20120 2006 63 WP MM NOT_NAMED 2006-09-13 03:00:00 TS 21.1434 112.066 main 63 30 P_PP__________ WP152006 21.0923 112.242 TD 27 1001 -1 1008 180 50 21.1922 111.675 1 23 1002 21.1477 112.495 TD 30 998 7 297
2006253N20120 2006 63 WP MM NOT_NAMED 2006-09-13 06:00:00 TS 21.3000 111.800 main 30 0 O_OO__________ jtwc_wp WP152006 21.3000 111.800 TD 25 1002 -1 1008 180 50 21.3000 111.700 1 23 1002 21.3000 112.100 TD 30 998 6 303
2006253N20120 2006 63 WP MM NOT_NAMED 2006-09-13 09:00:00 TS 21.4714 111.533 main 0 0 P_P___________ WP152006 21.5028 111.353 TD 22 1003 -1 21.4401 111.713 1 23 1002 TD 6 307
2006253N20120 2006 63 WP MM NOT_NAMED 2006-09-13 12:00:00 TS 21.6500 111.300 main 0 O_O___________ jtwc_wp WP152006 21.7000 110.900 TD 20 1004 -1 21.6000 111.700 1 23 1002 6 310

デジタル台風データ・検索

IBTrACS Databaseについて

本データベースは、米国NOAAが公開する1842年以降の世界の熱帯低気圧のベストトラックデータアーカイブInternational Best Track Archive for Climate Stewardship (IBTrACS)を、ウェブで閲覧しやすい形式に変換したものです。

最終更新日:2021-10-19